Acequia, Idaho
Current Conditions -  °F | °C
As of 7:53 AM on Saturday 25 Oct 2014 (Local Time) from KBYI Reporting Station
Clear Clear  
Wind Chill: 44°   Ceiling: Unl
Heat Index: 48°   Visibility: 10mi
Dew Point: 33°   Wind: 8mph
Humidity: 56%   Direction: 110°ESE
Pressure: 29.95"   Gusts: NA
Location:  42.6416°N, 113.637°W
Report Text: KBYI 251353Z AUTO 11007KT 10SM CLR 09/01 A2995 RMK AO2 SLP121 T00890006
Loading
Personal Weather Stations






























Interactive Weather Map
Tropical Storm Tracking
New forecast layout! Learn more

10-Day Weather Forecast

Advertisements
Track Severe Weather on mobile